sensor_id;sensor_type;location;lat;lon;timestamp;P1;durP1;ratioP1;P2;durP2;ratioP2
27303;SDS011;14791;52.392;13.092;2023-04-01T00:01:19;1.30;;;1.10;;
27303;SDS011;14791;52.392;13.092;2023-04-01T00:03:48;4.10;;;1.00;;
27303;SDS011;14791;52.392;13.092;2023-04-01T00:06:17;1.07;;;0.93;;
27303;SDS011;14791;52.392;13.092;2023-04-01T00:08:46;0.70;;;0.70;;
27303;SDS011;14791;52.392;13.092;2023-04-01T00:11:16;0.80;;;0.80;;
27303;SDS011;14791;52.392;13.092;2023-04-01T00:13:45;2.10;;;1.33;;
27303;SDS011;14791;52.392;13.092;2023-04-01T00:16:15;1.20;;;1.10;;
27303;SDS011;14791;52.392;13.092;2023-04-01T00:18:44;1.07;;;1.07;;
27303;SDS011;14791;52.392;13.092;2023-04-01T00:21:14;0.90;;;0.90;;
27303;SDS011;14791;52.392;13.092;2023-04-01T00:23:43;0.77;;;0.70;;
27303;SDS011;14791;52.392;13.092;2023-04-01T00:26:12;0.87;;;0.80;;
27303;SDS011;14791;52.392;13.092;2023-04-01T00:28:43;0.60;;;0.60;;
27303;SDS011;14791;52.392;13.092;2023-04-01T00:31:13;0.60;;;0.60;;
27303;SDS011;14791;52.392;13.092;2023-04-01T00:33:42;0.77;;;0.77;;
27303;SDS011;14791;52.392;13.092;2023-04-01T00:36:13;0.77;;;0.77;;
27303;SDS011;14791;52.392;13.092;2023-04-01T00:38:44;0.40;;;0.40;;
27303;SDS011;14791;52.392;13.092;2023-04-01T00:41:14;0.70;;;0.70;;
27303;SDS011;14791;52.392;13.092;2023-04-01T00:43:45;1.00;;;0.97;;
27303;SDS011;14791;52.392;13.092;2023-04-01T00:46:16;0.90;;;0.90;;
27303;SDS011;14791;52.392;13.092;2023-04-01T00:48:50;0.70;;;0.70;;
27303;SDS011;14791;52.392;13.092;2023-04-01T00:51:22;0.80;;;0.80;;
27303;SDS011;14791;52.392;13.092;2023-04-01T00:53:53;0.97;;;0.93;;
27303;SDS011;14791;52.392;13.092;2023-04-01T00:56:24;0.70;;;0.70;;
27303;SDS011;14791;52.392;13.092;2023-04-01T00:59:02;0.97;;;0.97;;
27303;SDS011;14791;52.392;13.092;2023-04-01T01:01:35;1.00;;;1.00;;
27303;SDS011;14791;52.392;13.092;2023-04-01T01:04:04;0.77;;;0.77;;
27303;SDS011;14791;52.392;13.092;2023-04-01T01:09:21;1.27;;;1.27;;
27303;SDS011;14791;52.392;13.092;2023-04-01T01:17:58;0.80;;;0.80;;
27303;SDS011;14791;52.392;13.092;2023-04-01T01:20:42;0.80;;;0.80;;
27303;SDS011;14791;52.392;13.092;2023-04-01T01:34:33;0.67;;;0.67;;
27303;SDS011;14791;52.392;13.092;2023-04-01T01:37:08;0.70;;;0.70;;
27303;SDS011;14791;52.392;13.092;2023-04-01T01:39:38;0.87;;;0.87;;
27303;SDS011;14791;52.392;13.092;2023-04-01T01:42:11;0.80;;;0.80;;
27303;SDS011;14791;52.392;13.092;2023-04-01T01:44:42;1.10;;;1.10;;
27303;SDS011;14791;52.392;13.092;2023-04-01T01:47:14;1.27;;;0.70;;
27303;SDS011;14791;52.392;13.092;2023-04-01T01:49:45;2.10;;;0.77;;
27303;SDS011;14791;52.392;13.092;2023-04-01T01:52:16;0.90;;;0.90;;
27303;SDS011;14791;52.392;13.092;2023-04-01T01:54:52;0.90;;;0.90;;
27303;SDS011;14791;52.392;13.092;2023-04-01T01:57:26;1.13;;;1.13;;
27303;SDS011;14791;52.392;13.092;2023-04-01T02:00:17;0.93;;;0.87;;
27303;SDS011;14791;52.392;13.092;2023-04-01T02:02:44;1.00;;;1.00;;
27303;SDS011;14791;52.392;13.092;2023-04-01T02:05:11;0.80;;;0.80;;
27303;SDS011;14791;52.392;13.092;2023-04-01T02:07:46;0.90;;;0.90;;
27303;SDS011;14791;52.392;13.092;2023-04-01T02:10:35;0.97;;;0.97;;
27303;SDS011;14791;52.392;13.092;2023-04-01T02:13:07;1.43;;;0.70;;
27303;SDS011;14791;52.392;13.092;2023-04-01T02:15:47;1.13;;;0.90;;
27303;SDS011;14791;52.392;13.092;2023-04-01T02:18:18;0.97;;;0.97;;
27303;SDS011;14791;52.392;13.092;2023-04-01T02:20:48;1.57;;;0.77;;
27303;SDS011;14791;52.392;13.092;2023-04-01T02:23:18;1.10;;;1.00;;
27303;SDS011;14791;52.392;13.092;2023-04-01T02:25:49;0.87;;;0.87;;
27303;SDS011;14791;52.392;13.092;2023-04-01T02:28:18;0.90;;;0.90;;
27303;SDS011;14791;52.392;13.092;2023-04-01T02:30:50;1.13;;;1.07;;
27303;SDS011;14791;52.392;13.092;2023-04-01T02:33:20;0.90;;;0.90;;
27303;SDS011;14791;52.392;13.092;2023-04-01T02:35:49;1.10;;;0.90;;
27303;SDS011;14791;52.392;13.092;2023-04-01T02:38:19;0.70;;;0.70;;
27303;SDS011;14791;52.392;13.092;2023-04-01T02:40:56;1.07;;;0.97;;
27303;SDS011;14791;52.392;13.092;2023-04-01T02:43:26;0.90;;;0.80;;
27303;SDS011;14791;52.392;13.092;2023-04-01T02:45:56;0.73;;;0.73;;
27303;SDS011;14791;52.392;13.092;2023-04-01T02:48:25;1.00;;;0.90;;
27303;SDS011;14791;52.392;13.092;2023-04-01T02:50:54;0.90;;;0.90;;
27303;SDS011;14791;52.392;13.092;2023-04-01T02:53:23;0.80;;;0.80;;
27303;SDS011;14791;52.392;13.092;2023-04-01T02:55:52;0.97;;;0.87;;
27303;SDS011;14791;52.392;13.092;2023-04-01T02:58:21;0.83;;;0.83;;
27303;SDS011;14791;52.392;13.092;2023-04-01T03:00:51;1.27;;;1.17;;
27303;SDS011;14791;52.392;13.092;2023-04-01T03:03:19;1.77;;;0.77;;
27303;SDS011;14791;52.392;13.092;2023-04-01T03:05:48;0.73;;;0.73;;
27303;SDS011;14791;52.392;13.092;2023-04-01T03:08:19;1.23;;;1.20;;
27303;SDS011;14791;52.392;13.092;2023-04-01T03:10:48;0.83;;;0.77;;
27303;SDS011;14791;52.392;13.092;2023-04-01T03:13:16;1.10;;;1.10;;
27303;SDS011;14791;52.392;13.092;2023-04-01T03:15:45;0.50;;;0.50;;
27303;SDS011;14791;52.392;13.092;2023-04-01T03:18:15;0.87;;;0.87;;
27303;SDS011;14791;52.392;13.092;2023-04-01T03:20:45;0.90;;;0.83;;
27303;SDS011;14791;52.392;13.092;2023-04-01T03:23:14;0.97;;;0.97;;
27303;SDS011;14791;52.392;13.092;2023-04-01T03:25:45;1.07;;;0.90;;
27303;SDS011;14791;52.392;13.092;2023-04-01T03:28:15;1.00;;;1.00;;
27303;SDS011;14791;52.392;13.092;2023-04-01T03:30:44;1.43;;;1.00;;
27303;SDS011;14791;52.392;13.092;2023-04-01T03:33:13;1.20;;;1.00;;
27303;SDS011;14791;52.392;13.092;2023-04-01T03:35:42;0.83;;;0.83;;
27303;SDS011;14791;52.392;13.092;2023-04-01T03:38:11;0.90;;;0.77;;
27303;SDS011;14791;52.392;13.092;2023-04-01T03:40:42;0.97;;;0.97;;
27303;SDS011;14791;52.392;13.092;2023-04-01T03:43:11;1.57;;;1.00;;
27303;SDS011;14791;52.392;13.092;2023-04-01T03:45:47;0.77;;;0.77;;
27303;SDS011;14791;52.392;13.092;2023-04-01T03:48:17;0.93;;;0.83;;
27303;SDS011;14791;52.392;13.092;2023-04-01T03:50:46;1.20;;;1.13;;
27303;SDS011;14791;52.392;13.092;2023-04-01T03:56:06;1.00;;;1.00;;
27303;SDS011;14791;52.392;13.092;2023-04-01T03:58:36;0.90;;;0.90;;
27303;SDS011;14791;52.392;13.092;2023-04-01T04:01:17;3.70;;;3.43;;
27303;SDS011;14791;52.392;13.092;2023-04-01T04:03:52;1.20;;;1.10;;
27303;SDS011;14791;52.392;13.092;2023-04-01T04:06:22;1.30;;;1.20;;
27303;SDS011;14791;52.392;13.092;2023-04-01T04:08:52;0.90;;;0.90;;
27303;SDS011;14791;52.392;13.092;2023-04-01T04:11:22;1.10;;;1.00;;
27303;SDS011;14791;52.392;13.092;2023-04-01T04:13:52;2.10;;;1.30;;
27303;SDS011;14791;52.392;13.092;2023-04-01T04:16:21;0.90;;;0.90;;
27303;SDS011;14791;52.392;13.092;2023-04-01T04:18:52;1.10;;;1.00;;
27303;SDS011;14791;52.392;13.092;2023-04-01T04:21:21;1.10;;;1.10;;
27303;SDS011;14791;52.392;13.092;2023-04-01T04:23:50;1.00;;;1.00;;
27303;SDS011;14791;52.392;13.092;2023-04-01T04:26:19;1.20;;;0.90;;
27303;SDS011;14791;52.392;13.092;2023-04-01T04:28:56;1.57;;;1.23;;
27303;SDS011;14791;52.392;13.092;2023-04-01T04:31:25;1.97;;;1.13;;
27303;SDS011;14791;52.392;13.092;2023-04-01T04:33:56;0.80;;;0.80;;
27303;SDS011;14791;52.392;13.092;2023-04-01T04:36:30;1.03;;;0.80;;
27303;SDS011;14791;52.392;13.092;2023-04-01T04:38:59;1.43;;;0.93;;
27303;SDS011;14791;52.392;13.092;2023-04-01T04:41:30;3.13;;;1.03;;
27303;SDS011;14791;52.392;13.092;2023-04-01T04:43:59;1.23;;;1.13;;
27303;SDS011;14791;52.392;13.092;2023-04-01T04:46:28;0.80;;;0.80;;
27303;SDS011;14791;52.392;13.092;2023-04-01T04:48:58;1.37;;;1.27;;
27303;SDS011;14791;52.392;13.092;2023-04-01T04:51:28;1.10;;;1.00;;
27303;SDS011;14791;52.392;13.092;2023-04-01T04:53:57;1.03;;;0.93;;
27303;SDS011;14791;52.392;13.092;2023-04-01T04:56:27;1.10;;;1.10;;
27303;SDS011;14791;52.392;13.092;2023-04-01T04:58:59;1.10;;;1.10;;
27303;SDS011;14791;52.392;13.092;2023-04-01T05:01:30;1.10;;;1.10;;
27303;SDS011;14791;52.392;13.092;2023-04-01T05:04:00;1.13;;;1.03;;
27303;SDS011;14791;52.392;13.092;2023-04-01T05:06:29;1.63;;;1.17;;
27303;SDS011;14791;52.392;13.092;2023-04-01T05:08:59;1.30;;;1.17;;
27303;SDS011;14791;52.392;13.092;2023-04-01T05:11:27;1.30;;;1.20;;
27303;SDS011;14791;52.392;13.092;2023-04-01T05:13:57;1.20;;;1.20;;
27303;SDS011;14791;52.392;13.092;2023-04-01T05:16:26;1.87;;;1.00;;
27303;SDS011;14791;52.392;13.092;2023-04-01T05:18:55;1.50;;;1.00;;
27303;SDS011;14791;52.392;13.092;2023-04-01T05:21:24;1.13;;;1.03;;
27303;SDS011;14791;52.392;13.092;2023-04-01T05:23:54;1.10;;;1.00;;
27303;SDS011;14791;52.392;13.092;2023-04-01T05:26:24;1.13;;;1.10;;
27303;SDS011;14791;52.392;13.092;2023-04-01T05:28:53;1.07;;;0.87;;
27303;SDS011;14791;52.392;13.092;2023-04-01T05:31:22;0.70;;;0.70;;
27303;SDS011;14791;52.392;13.092;2023-04-01T05:33:51;0.90;;;0.90;;
27303;SDS011;14791;52.392;13.092;2023-04-01T05:36:21;0.80;;;0.80;;
27303;SDS011;14791;52.392;13.092;2023-04-01T05:38:50;0.90;;;0.90;;
27303;SDS011;14791;52.392;13.092;2023-04-01T05:41:21;1.27;;;1.27;;
27303;SDS011;14791;52.392;13.092;2023-04-01T05:43:50;1.20;;;1.10;;
27303;SDS011;14791;52.392;13.092;2023-04-01T05:46:20;1.00;;;0.93;;
27303;SDS011;14791;52.392;13.092;2023-04-01T05:48:51;1.03;;;1.00;;
27303;SDS011;14791;52.392;13.092;2023-04-01T05:51:20;0.63;;;0.63;;
27303;SDS011;14791;52.392;13.092;2023-04-01T05:53:49;0.90;;;0.90;;
27303;SDS011;14791;52.392;13.092;2023-04-01T05:56:18;3.60;;;1.13;;
27303;SDS011;14791;52.392;13.092;2023-04-01T05:58:54;0.83;;;0.83;;
27303;SDS011;14791;52.392;13.092;2023-04-01T06:01:22;0.77;;;0.77;;
27303;SDS011;14791;52.392;13.092;2023-04-01T06:03:51;0.83;;;0.83;;
27303;SDS011;14791;52.392;13.092;2023-04-01T06:06:24;0.90;;;0.90;;
27303;SDS011;14791;52.392;13.092;2023-04-01T06:08:57;1.23;;;0.87;;
27303;SDS011;14791;52.392;13.092;2023-04-01T06:19:57;0.77;;;0.77;;
27303;SDS011;14791;52.392;13.092;2023-04-01T06:22:36;1.13;;;0.90;;
27303;SDS011;14791;52.392;13.092;2023-04-01T06:25:23;1.05;;;0.90;;
27303;SDS011;14791;52.392;13.092;2023-04-01T06:27:54;0.87;;;0.60;;
27303;SDS011;14791;52.392;13.092;2023-04-01T06:44:13;0.90;;;0.90;;
27303;SDS011;14791;52.392;13.092;2023-04-01T06:47:07;0.97;;;0.97;;
27303;SDS011;14791;52.392;13.092;2023-04-01T06:53:21;1.77;;;1.10;;
27303;SDS011;14791;52.392;13.092;2023-04-01T06:56:29;0.82;;;0.82;;
27303;SDS011;14791;52.392;13.092;2023-04-01T06:59:05;1.33;;;1.03;;
27303;SDS011;14791;52.392;13.092;2023-04-01T07:01:55;0.90;;;0.90;;
27303;SDS011;14791;52.392;13.092;2023-04-01T07:04:23;0.70;;;0.70;;
27303;SDS011;14791;52.392;13.092;2023-04-01T07:07:08;1.10;;;1.00;;
27303;SDS011;14791;52.392;13.092;2023-04-01T07:09:48;0.90;;;0.87;;
27303;SDS011;14791;52.392;13.092;2023-04-01T07:15:30;1.33;;;1.00;;
27303;SDS011;14791;52.392;13.092;2023-04-01T07:18:22;1.20;;;1.00;;
27303;SDS011;14791;52.392;13.092;2023-04-01T07:20:52;1.20;;;1.00;;
27303;SDS011;14791;52.392;13.092;2023-04-01T07:23:24;1.53;;;1.07;;
27303;SDS011;14791;52.392;13.092;2023-04-01T07:26:00;1.20;;;1.02;;
27303;SDS011;14791;52.392;13.092;2023-04-01T07:29:00;0.90;;;0.90;;
27303;SDS011;14791;52.392;13.092;2023-04-01T07:34:33;1.37;;;1.27;;
27303;SDS011;14791;52.392;13.092;2023-04-01T07:37:28;1.17;;;1.07;;
27303;SDS011;14791;52.392;13.092;2023-04-01T07:45:43;1.00;;;1.00;;
27303;SDS011;14791;52.392;13.092;2023-04-01T07:48:29;1.07;;;1.07;;
27303;SDS011;14791;52.392;13.092;2023-04-01T07:54:07;1.07;;;0.98;;
27303;SDS011;14791;52.392;13.092;2023-04-01T07:57:01;0.80;;;0.80;;
27303;SDS011;14791;52.392;13.092;2023-04-01T08:03:03;1.47;;;1.10;;
27303;SDS011;14791;52.392;13.092;2023-04-01T08:08:23;1.15;;;1.05;;
27303;SDS011;14791;52.392;13.092;2023-04-01T08:11:39;1.07;;;1.07;;
27303;SDS011;14791;52.392;13.092;2023-04-01T08:14:37;0.98;;;0.93;;
27303;SDS011;14791;52.392;13.092;2023-04-01T08:17:09;1.07;;;1.07;;
27303;SDS011;14791;52.392;13.092;2023-04-01T08:19:59;1.12;;;1.10;;
27303;SDS011;14791;52.392;13.092;2023-04-01T08:25:26;1.13;;;1.03;;
27303;SDS011;14791;52.392;13.092;2023-04-01T08:30:44;1.05;;;0.80;;
27303;SDS011;14791;52.392;13.092;2023-04-01T08:33:17;1.45;;;0.70;;
27303;SDS011;14791;52.392;13.092;2023-04-01T08:38:40;1.10;;;1.00;;
27303;SDS011;14791;52.392;13.092;2023-04-01T08:47:13;1.20;;;1.10;;
27303;SDS011;14791;52.392;13.092;2023-04-01T08:52:44;0.90;;;0.90;;
27303;SDS011;14791;52.392;13.092;2023-04-01T08:55:36;0.90;;;0.90;;
27303;SDS011;14791;52.392;13.092;2023-04-01T09:03:58;0.70;;;0.70;;
27303;SDS011;14791;52.392;13.092;2023-04-01T09:06:33;2.62;;;1.20;;
27303;SDS011;14791;52.392;13.092;2023-04-01T09:14:47;1.00;;;1.00;;
27303;SDS011;14791;52.392;13.092;2023-04-01T09:17:42;0.65;;;0.65;;
27303;SDS011;14791;52.392;13.092;2023-04-01T09:37:45;0.80;;;0.80;;
27303;SDS011;14791;52.392;13.092;2023-04-01T09:40:21;1.47;;;0.80;;
27303;SDS011;14791;52.392;13.092;2023-04-01T09:51:49;0.80;;;0.80;;
27303;SDS011;14791;52.392;13.092;2023-04-01T10:11:14;0.80;;;0.80;;
27303;SDS011;14791;52.392;13.092;2023-04-01T10:19:43;1.10;;;1.10;;
27303;SDS011;14791;52.392;13.092;2023-04-01T10:25:10;1.42;;;1.42;;
27303;SDS011;14791;52.392;13.092;2023-04-01T10:45:24;2.35;;;2.35;;
27303;SDS011;14791;52.392;13.092;2023-04-01T10:48:01;2.65;;;2.60;;
27303;SDS011;14791;52.392;13.092;2023-04-01T10:56:54;2.93;;;2.83;;
27303;SDS011;14791;52.392;13.092;2023-04-01T10:59:41;3.10;;;3.00;;
27303;SDS011;14791;52.392;13.092;2023-04-01T11:08:38;2.27;;;2.27;;
27303;SDS011;14791;52.392;13.092;2023-04-01T11:30:41;2.90;;;2.90;;
27303;SDS011;14791;52.392;13.092;2023-04-01T11:33:44;3.37;;;3.17;;
27303;SDS011;14791;52.392;13.092;2023-04-01T11:36:33;3.17;;;3.07;;
27303;SDS011;14791;52.392;13.092;2023-04-01T11:45:11;3.17;;;3.08;;
27303;SDS011;14791;52.392;13.092;2023-04-01T11:47:52;3.73;;;3.63;;
27303;SDS011;14791;52.392;13.092;2023-04-01T12:07:19;3.30;;;3.20;;
27303;SDS011;14791;52.392;13.092;2023-04-01T12:15:26;2.95;;;2.95;;
27303;SDS011;14791;52.392;13.092;2023-04-01T12:20:49;3.08;;;2.98;;
27303;SDS011;14791;52.392;13.092;2023-04-01T12:23:24;2.80;;;2.80;;
27303;SDS011;14791;52.392;13.092;2023-04-01T12:31:38;4.70;;;4.60;;
27303;SDS011;14791;52.392;13.092;2023-04-01T12:34:26;3.90;;;3.72;;
27303;SDS011;14791;52.392;13.092;2023-04-01T12:37:16;3.10;;;3.10;;
27303;SDS011;14791;52.392;13.092;2023-04-01T12:45:15;2.85;;;2.83;;
27303;SDS011;14791;52.392;13.092;2023-04-01T12:50:26;2.83;;;2.80;;
27303;SDS011;14791;52.392;13.092;2023-04-01T12:53:18;2.90;;;2.90;;
27303;SDS011;14791;52.392;13.092;2023-04-01T12:55:45;7.63;;;7.13;;
27303;SDS011;14791;52.392;13.092;2023-04-01T13:01:29;3.70;;;3.60;;
27303;SDS011;14791;52.392;13.092;2023-04-01T13:26:01;3.10;;;3.10;;
27303;SDS011;14791;52.392;13.092;2023-04-01T13:28:38;2.87;;;2.87;;
27303;SDS011;14791;52.392;13.092;2023-04-01T13:33:50;2.67;;;2.67;;
27303;SDS011;14791;52.392;13.092;2023-04-01T13:36:24;3.50;;;3.40;;
27303;SDS011;14791;52.392;13.092;2023-04-01T13:39:15;3.20;;;3.10;;
27303;SDS011;14791;52.392;13.092;2023-04-01T13:44:46;3.17;;;3.10;;
27303;SDS011;14791;52.392;13.092;2023-04-01T13:47:34;3.67;;;3.57;;
27303;SDS011;14791;52.392;13.092;2023-04-01T13:50:06;3.37;;;3.30;;
27303;SDS011;14791;52.392;13.092;2023-04-01T13:52:47;4.30;;;4.20;;
27303;SDS011;14791;52.392;13.092;2023-04-01T14:04:33;5.03;;;4.93;;
27303;SDS011;14791;52.392;13.092;2023-04-01T14:06:23;4.23;;;4.13;;
27303;SDS011;14791;52.392;13.092;2023-04-01T14:15:14;4.53;;;4.43;;
27303;SDS011;14791;52.392;13.092;2023-04-01T14:17:58;5.03;;;4.93;;
27303;SDS011;14791;52.392;13.092;2023-04-01T14:20:50;4.60;;;4.40;;
27303;SDS011;14791;52.392;13.092;2023-04-01T14:28:59;4.37;;;4.27;;
27303;SDS011;14791;52.392;13.092;2023-04-01T14:31:52;4.23;;;4.13;;
27303;SDS011;14791;52.392;13.092;2023-04-01T14:34:24;4.63;;;4.53;;
27303;SDS011;14791;52.392;13.092;2023-04-01T14:37:13;4.80;;;4.70;;
27303;SDS011;14791;52.392;13.092;2023-04-01T14:42:53;4.40;;;4.30;;
27303;SDS011;14791;52.392;13.092;2023-04-01T14:45:32;4.30;;;4.20;;
27303;SDS011;14791;52.392;13.092;2023-04-01T14:48:21;4.50;;;4.30;;
27303;SDS011;14791;52.392;13.092;2023-04-01T14:51:10;4.40;;;4.30;;
27303;SDS011;14791;52.392;13.092;2023-04-01T14:53:33;3.87;;;3.77;;
27303;SDS011;14791;52.392;13.092;2023-04-01T14:56:06;4.40;;;4.30;;
27303;SDS011;14791;52.392;13.092;2023-04-01T14:58:43;3.67;;;3.57;;
27303;SDS011;14791;52.392;13.092;2023-04-01T15:01:19;3.80;;;3.70;;
27303;SDS011;14791;52.392;13.092;2023-04-01T15:07:09;3.27;;;3.17;;
27303;SDS011;14791;52.392;13.092;2023-04-01T15:27:20;3.10;;;3.00;;
27303;SDS011;14791;52.392;13.092;2023-04-01T15:30:21;2.90;;;2.80;;
27303;SDS011;14791;52.392;13.092;2023-04-01T15:33:14;3.10;;;3.00;;
27303;SDS011;14791;52.392;13.092;2023-04-01T15:38:49;3.73;;;3.63;;
27303;SDS011;14791;52.392;13.092;2023-04-01T15:41:24;4.50;;;4.40;;
27303;SDS011;14791;52.392;13.092;2023-04-01T15:44:04;4.43;;;4.33;;
27303;SDS011;14791;52.392;13.092;2023-04-01T15:49:36;4.17;;;4.07;;
27303;SDS011;14791;52.392;13.092;2023-04-01T15:52:19;3.37;;;3.27;;
27303;SDS011;14791;52.392;13.092;2023-04-01T16:00:42;3.63;;;3.50;;
27303;SDS011;14791;52.392;13.092;2023-04-01T16:03:33;4.40;;;4.20;;
27303;SDS011;14791;52.392;13.092;2023-04-01T16:06:10;3.20;;;3.10;;
27303;SDS011;14791;52.392;13.092;2023-04-01T16:09:05;3.10;;;3.00;;
27303;SDS011;14791;52.392;13.092;2023-04-01T16:11:57;2.97;;;2.87;;
27303;SDS011;14791;52.392;13.092;2023-04-01T16:20:21;3.87;;;3.77;;
27303;SDS011;14791;52.392;13.092;2023-04-01T16:23:02;4.27;;;4.17;;
27303;SDS011;14791;52.392;13.092;2023-04-01T16:25:33;4.03;;;3.93;;
27303;SDS011;14791;52.392;13.092;2023-04-01T16:28:32;3.73;;;3.63;;
27303;SDS011;14791;52.392;13.092;2023-04-01T16:34:08;3.17;;;3.07;;
27303;SDS011;14791;52.392;13.092;2023-04-01T16:36:41;3.67;;;3.47;;
27303;SDS011;14791;52.392;13.092;2023-04-01T16:44:54;3.70;;;3.57;;
27303;SDS011;14791;52.392;13.092;2023-04-01T16:47:23;3.63;;;3.53;;
27303;SDS011;14791;52.392;13.092;2023-04-01T16:53:10;2.97;;;2.87;;
27303;SDS011;14791;52.392;13.092;2023-04-01T16:58:40;3.33;;;3.23;;
27303;SDS011;14791;52.392;13.092;2023-04-01T17:01:12;3.17;;;3.07;;
27303;SDS011;14791;52.392;13.092;2023-04-01T17:03:44;3.10;;;3.00;;
27303;SDS011;14791;52.392;13.092;2023-04-01T17:09:07;3.07;;;2.97;;
27303;SDS011;14791;52.392;13.092;2023-04-01T17:11:41;2.90;;;2.80;;
27303;SDS011;14791;52.392;13.092;2023-04-01T17:14:23;2.80;;;2.80;;
27303;SDS011;14791;52.392;13.092;2023-04-01T17:22:40;2.40;;;2.40;;
27303;SDS011;14791;52.392;13.092;2023-04-01T17:31:20;2.37;;;2.30;;
27303;SDS011;14791;52.392;13.092;2023-04-01T17:42:43;2.03;;;2.00;;
27303;SDS011;14791;52.392;13.092;2023-04-01T17:45:18;2.20;;;2.20;;
27303;SDS011;14791;52.392;13.092;2023-04-01T18:02:02;2.47;;;2.37;;
27303;SDS011;14791;52.392;13.092;2023-04-01T18:07:45;2.17;;;2.10;;
27303;SDS011;14791;52.392;13.092;2023-04-01T18:13:32;2.57;;;2.47;;
27303;SDS011;14791;52.392;13.092;2023-04-01T18:19:25;2.53;;;2.43;;
27303;SDS011;14791;52.392;13.092;2023-04-01T18:22:08;2.20;;;2.20;;
27303;SDS011;14791;52.392;13.092;2023-04-01T18:24:30;2.73;;;2.63;;
27303;SDS011;14791;52.392;13.092;2023-04-01T18:29:44;2.73;;;2.63;;
27303;SDS011;14791;52.392;13.092;2023-04-01T18:35:52;2.50;;;2.50;;
27303;SDS011;14791;52.392;13.092;2023-04-01T18:37:50;2.80;;;2.70;;
27303;SDS011;14791;52.392;13.092;2023-04-01T18:40:48;2.80;;;2.70;;
27303;SDS011;14791;52.392;13.092;2023-04-01T18:46:26;2.73;;;2.63;;
27303;SDS011;14791;52.392;13.092;2023-04-01T18:51:34;2.37;;;2.30;;
27303;SDS011;14791;52.392;13.092;2023-04-01T18:54:12;2.10;;;2.00;;
27303;SDS011;14791;52.392;13.092;2023-04-01T18:56:40;2.30;;;2.30;;
27303;SDS011;14791;52.392;13.092;2023-04-01T18:59:28;2.30;;;2.20;;
27303;SDS011;14791;52.392;13.092;2023-04-01T19:02:14;2.30;;;2.20;;
27303;SDS011;14791;52.392;13.092;2023-04-01T19:04:56;2.23;;;2.13;;
27303;SDS011;14791;52.392;13.092;2023-04-01T19:18:22;2.53;;;2.43;;
27303;SDS011;14791;52.392;13.092;2023-04-01T19:21:26;2.20;;;2.20;;
27303;SDS011;14791;52.392;13.092;2023-04-01T19:26:58;2.03;;;2.03;;
27303;SDS011;14791;52.392;13.092;2023-04-01T19:29:36;2.57;;;2.47;;
27303;SDS011;14791;52.392;13.092;2023-04-01T19:34:52;2.67;;;2.57;;
27303;SDS011;14791;52.392;13.092;2023-04-01T19:37:39;3.03;;;2.87;;
27303;SDS011;14791;52.392;13.092;2023-04-01T19:40:29;2.53;;;2.43;;
27303;SDS011;14791;52.392;13.092;2023-04-01T19:45:37;2.87;;;2.77;;
27303;SDS011;14791;52.392;13.092;2023-04-01T19:48:13;3.00;;;2.90;;
27303;SDS011;14791;52.392;13.092;2023-04-01T19:51:19;2.73;;;2.63;;
27303;SDS011;14791;52.392;13.092;2023-04-01T19:59:19;3.00;;;2.90;;
27303;SDS011;14791;52.392;13.092;2023-04-01T20:04:44;2.60;;;2.50;;
27303;SDS011;14791;52.392;13.092;2023-04-01T20:12:44;2.37;;;2.27;;
27303;SDS011;14791;52.392;13.092;2023-04-01T20:15:21;3.30;;;3.20;;
27303;SDS011;14791;52.392;13.092;2023-04-01T20:18:17;2.60;;;2.50;;
27303;SDS011;14791;52.392;13.092;2023-04-01T20:21:15;2.77;;;2.67;;
27303;SDS011;14791;52.392;13.092;2023-04-01T20:23:52;2.93;;;2.83;;
27303;SDS011;14791;52.392;13.092;2023-04-01T20:26:37;2.87;;;2.77;;
27303;SDS011;14791;52.392;13.092;2023-04-01T20:29:18;3.20;;;3.10;;
27303;SDS011;14791;52.392;13.092;2023-04-01T20:45:56;3.50;;;3.30;;
27303;SDS011;14791;52.392;13.092;2023-04-01T20:48:42;3.37;;;3.27;;
27303;SDS011;14791;52.392;13.092;2023-04-01T20:51:23;3.60;;;3.47;;
27303;SDS011;14791;52.392;13.092;2023-04-01T20:57:06;3.37;;;3.20;;
27303;SDS011;14791;52.392;13.092;2023-04-01T21:03:02;4.00;;;3.70;;
27303;SDS011;14791;52.392;13.092;2023-04-01T21:13:57;3.30;;;3.10;;
27303;SDS011;14791;52.392;13.092;2023-04-01T21:16:44;4.57;;;4.37;;
27303;SDS011;14791;52.392;13.092;2023-04-01T21:19:20;4.20;;;4.00;;
27303;SDS011;14791;52.392;13.092;2023-04-01T21:25:03;3.90;;;3.70;;
27303;SDS011;14791;52.392;13.092;2023-04-01T21:39:03;3.97;;;3.77;;
27303;SDS011;14791;52.392;13.092;2023-04-01T21:50:26;3.80;;;3.60;;
27303;SDS011;14791;52.392;13.092;2023-04-01T22:07:19;3.77;;;3.63;;
27303;SDS011;14791;52.392;13.092;2023-04-01T22:12:44;4.17;;;3.87;;
27303;SDS011;14791;52.392;13.092;2023-04-01T22:15:18;3.93;;;3.63;;
27303;SDS011;14791;52.392;13.092;2023-04-01T22:17:50;3.70;;;3.60;;
27303;SDS011;14791;52.392;13.092;2023-04-01T22:20:40;4.43;;;3.80;;
27303;SDS011;14791;52.392;13.092;2023-04-01T22:26:10;3.43;;;3.23;;
27303;SDS011;14791;52.392;13.092;2023-04-01T22:28:46;3.07;;;2.97;;
27303;SDS011;14791;52.392;13.092;2023-04-01T22:31:38;3.50;;;3.30;;
27303;SDS011;14791;52.392;13.092;2023-04-01T22:34:10;3.47;;;3.37;;
27303;SDS011;14791;52.392;13.092;2023-04-01T22:40:14;2.93;;;2.73;;
27303;SDS011;14791;52.392;13.092;2023-04-01T22:42:36;3.10;;;3.00;;
27303;SDS011;14791;52.392;13.092;2023-04-01T22:45:22;3.30;;;3.10;;
27303;SDS011;14791;52.392;13.092;2023-04-01T22:47:57;3.90;;;3.60;;
27303;SDS011;14791;52.392;13.092;2023-04-01T22:50:40;3.10;;;3.00;;
27303;SDS011;14791;52.392;13.092;2023-04-01T22:55:44;3.40;;;3.20;;
27303;SDS011;14791;52.392;13.092;2023-04-01T22:58:16;2.73;;;2.63;;
27303;SDS011;14791;52.392;13.092;2023-04-01T23:01:06;3.00;;;2.90;;
27303;SDS011;14791;52.392;13.092;2023-04-01T23:03:43;2.93;;;2.73;;
27303;SDS011;14791;52.392;13.092;2023-04-01T23:06:17;2.60;;;2.50;;
27303;SDS011;14791;52.392;13.092;2023-04-01T23:11:47;2.73;;;2.63;;
27303;SDS011;14791;52.392;13.092;2023-04-01T23:14:32;2.33;;;2.23;;
27303;SDS011;14791;52.392;13.092;2023-04-01T23:20:02;2.53;;;2.33;;
27303;SDS011;14791;52.392;13.092;2023-04-01T23:23:25;2.23;;;2.23;;
27303;SDS011;14791;52.392;13.092;2023-04-01T23:25:24;2.30;;;2.20;;
27303;SDS011;14791;52.392;13.092;2023-04-01T23:28:31;2.77;;;2.60;;
27303;SDS011;14791;52.392;13.092;2023-04-01T23:31:26;2.50;;;2.40;;
27303;SDS011;14791;52.392;13.092;2023-04-01T23:34:24;2.77;;;2.57;;
27303;SDS011;14791;52.392;13.092;2023-04-01T23:36:41;2.27;;;2.17;;
27303;SDS011;14791;52.392;13.092;2023-04-01T23:39:35;2.47;;;2.37;;
27303;SDS011;14791;52.392;13.092;2023-04-01T23:42:13;2.70;;;2.60;;
27303;SDS011;14791;52.392;13.092;2023-04-01T23:44:53;2.40;;;2.30;;
27303;SDS011;14791;52.392;13.092;2023-04-01T23:47:32;3.00;;;2.90;;
27303;SDS011;14791;52.392;13.092;2023-04-01T23:52:42;3.13;;;3.03;;
27303;SDS011;14791;52.392;13.092;2023-04-01T23:55:19;2.83;;;2.73;;
27303;SDS011;14791;52.392;13.092;2023-04-01T23:58:21;2.40;;;2.37;;
